createdAt,value
2022-09-01T00:00:43.845Z,12.29
2022-09-01T00:01:43.808Z,12.29
2022-09-01T00:02:43.846Z,12.22
2022-09-01T00:03:43.799Z,12.27
2022-09-01T00:04:43.810Z,12.15
2022-09-01T00:05:43.805Z,12.18
2022-09-01T00:06:43.774Z,12.12
2022-09-01T00:07:43.765Z,12.21
2022-09-01T00:08:43.755Z,12.06
2022-09-01T00:09:43.761Z,12.03
2022-09-01T00:10:43.843Z,12.04
2022-09-01T00:11:43.734Z,11.97
2022-09-01T00:12:44.733Z,11.95
2022-09-01T00:13:43.712Z,12.00
2022-09-01T00:14:43.705Z,12.04
2022-09-01T00:15:43.780Z,12.02
2022-09-01T00:16:43.716Z,12.02
2022-09-01T00:17:43.688Z,12.06
2022-09-01T00:18:43.678Z,12.09
2022-09-01T00:19:43.671Z,11.95
2022-09-01T00:20:43.683Z,11.94
2022-09-01T00:21:43.656Z,11.94
2022-09-01T00:22:43.639Z,11.97
2022-09-01T00:23:43.642Z,11.88
2022-09-01T00:24:43.626Z,11.83
2022-09-01T00:25:43.638Z,11.88
2022-09-01T00:26:43.642Z,11.90
2022-09-01T00:27:43.601Z,11.88
2022-09-01T00:28:43.602Z,11.77
2022-09-01T00:29:44.126Z,11.78
2022-09-01T00:30:43.662Z,11.86
2022-09-01T00:31:43.595Z,11.69
2022-09-01T00:32:43.568Z,11.83
2022-09-01T00:33:43.568Z,11.80
2022-09-01T00:34:43.549Z,11.83
2022-09-01T00:35:43.546Z,11.70
2022-09-01T00:36:43.559Z,11.83
2022-09-01T00:37:43.528Z,11.72
2022-09-01T00:38:43.520Z,11.69
2022-09-01T00:39:43.518Z,11.70
2022-09-01T00:40:43.566Z,11.69
2022-09-01T00:41:43.522Z,11.72
2022-09-01T00:42:43.493Z,11.63
2022-09-01T00:43:43.489Z,11.60
2022-09-01T00:44:43.473Z,11.52
2022-09-01T00:45:43.466Z,11.50
2022-09-01T00:46:47.731Z,11.43
2022-09-01T00:47:44.455Z,11.40
2022-09-01T00:48:43.442Z,11.40
2022-09-01T00:49:43.440Z,11.40
2022-09-01T00:50:43.438Z,11.43
2022-09-01T00:51:43.456Z,11.35
2022-09-01T00:52:43.422Z,11.36
2022-09-01T00:53:43.407Z,11.45
2022-09-01T00:54:43.396Z,11.41
2022-09-01T00:55:43.397Z,11.41
2022-09-01T00:56:46.645Z,11.37
2022-09-01T00:57:44.381Z,11.40
2022-09-01T00:58:43.365Z,11.52
2022-09-01T00:59:43.368Z,11.52
2022-09-01T01:00:43.355Z,11.52
2022-09-01T01:01:43.410Z,11.54
2022-09-01T01:02:43.365Z,11.55
2022-09-01T01:03:43.336Z,11.47
2022-09-01T01:04:43.367Z,11.41
2022-09-01T01:05:43.356Z,11.33
2022-09-01T01:06:43.332Z,11.33
2022-09-01T01:07:43.319Z,11.29
2022-09-01T01:08:43.294Z,11.27
2022-09-01T01:09:43.286Z,11.25
2022-09-01T01:10:43.277Z,11.22
2022-09-01T01:11:43.298Z,11.25
2022-09-01T01:12:43.263Z,11.29
2022-09-01T01:13:43.256Z,11.23
2022-09-01T01:14:44.084Z,11.22
2022-09-01T01:15:43.241Z,11.25
2022-09-01T01:16:43.585Z,11.25
2022-09-01T01:17:43.232Z,11.27
2022-09-01T01:18:43.222Z,11.27
2022-09-01T01:19:43.207Z,11.25
2022-09-01T01:20:43.206Z,11.30
2022-09-01T01:21:43.219Z,11.27
2022-09-01T01:22:43.198Z,11.22
2022-09-01T01:23:43.178Z,11.35
2022-09-01T01:24:43.179Z,11.27
2022-09-01T01:25:43.171Z,11.29
2022-09-01T01:26:43.194Z,11.29
2022-09-01T01:27:43.348Z,11.37
2022-09-01T01:28:43.147Z,11.41
2022-09-01T01:29:43.147Z,11.40
2022-09-01T01:30:43.172Z,11.36
2022-09-01T01:31:43.153Z,11.41
2022-09-01T01:32:43.201Z,11.47
2022-09-01T01:33:43.161Z,11.35
2022-09-01T01:34:43.096Z,11.40
2022-09-01T01:35:43.093Z,11.47
2022-09-01T01:36:43.113Z,11.40
2022-09-01T01:37:43.073Z,11.43
2022-09-01T01:38:43.075Z,11.35
2022-09-01T01:39:43.060Z,11.27
2022-09-01T01:40:43.102Z,11.19
2022-09-01T01:41:43.078Z,11.17
2022-09-01T01:42:43.041Z,10.93
2022-09-01T01:43:43.034Z,10.76
2022-09-01T01:44:43.017Z,10.61
2022-09-01T01:45:43.146Z,10.68
2022-09-01T01:46:43.083Z,10.75
2022-09-01T01:47:43.004Z,10.60
2022-09-01T01:48:42.991Z,10.76
2022-09-01T01:49:42.984Z,10.78
2022-09-01T01:50:42.984Z,10.72
2022-09-01T01:51:43.000Z,10.79
2022-09-01T01:52:45.597Z,10.74
2022-09-01T01:53:42.957Z,10.79
2022-09-01T01:54:42.945Z,10.78
2022-09-01T01:55:42.968Z,10.84
2022-09-01T01:56:42.958Z,10.81
2022-09-01T01:57:42.927Z,10.84
2022-09-01T01:58:42.912Z,10.89
2022-09-01T01:59:42.909Z,10.93
2022-09-01T02:00:42.939Z,10.82
2022-09-01T02:01:43.072Z,10.94
2022-09-01T02:02:42.949Z,10.94
2022-09-01T02:03:42.884Z,10.97
2022-09-01T02:04:42.876Z,10.89
2022-09-01T02:05:42.868Z,10.84
2022-09-01T02:06:42.884Z,10.84
2022-09-01T02:07:42.847Z,10.86
2022-09-01T02:08:42.842Z,10.90
2022-09-01T02:09:42.842Z,10.84
2022-09-01T02:10:42.828Z,10.90
2022-09-01T02:11:42.849Z,10.86
2022-09-01T02:12:42.816Z,10.79
2022-09-01T02:13:42.807Z,10.76
2022-09-01T02:14:42.797Z,10.64
2022-09-01T02:15:42.786Z,10.61
2022-09-01T02:16:42.851Z,10.64
2022-09-01T02:17:42.776Z,10.60
2022-09-01T02:18:42.765Z,10.61
2022-09-01T02:19:42.752Z,10.61
2022-09-01T02:20:42.755Z,10.69
2022-09-01T02:21:42.743Z,10.57
2022-09-01T02:22:42.761Z,10.69
2022-09-01T02:23:42.723Z,10.64
2022-09-01T02:24:42.720Z,10.71
2022-09-01T02:25:59.077Z,10.68
2022-09-01T02:26:44.711Z,10.61
2022-09-01T02:27:42.726Z,10.53
2022-09-01T02:28:42.707Z,10.74
2022-09-01T02:29:43.471Z,10.59
2022-09-01T02:30:42.704Z,10.69
2022-09-01T02:31:42.659Z,10.75
2022-09-01T02:32:42.680Z,10.67
2022-09-01T02:33:42.655Z,10.59
2022-09-01T02:34:42.657Z,10.59
2022-09-01T02:35:42.644Z,10.46
2022-09-01T02:36:42.631Z,10.61
2022-09-01T02:37:42.644Z,10.59
2022-09-01T02:38:42.613Z,10.71
2022-09-01T02:39:42.600Z,10.64
2022-09-01T02:40:42.664Z,10.67
2022-09-01T02:41:42.593Z,10.67
2022-09-01T02:42:42.606Z,10.75
2022-09-01T02:43:42.571Z,10.71
2022-09-01T02:44:42.566Z,10.63
2022-09-01T02:45:42.589Z,10.72
2022-09-01T02:46:42.554Z,10.76
2022-09-01T02:47:42.574Z,10.74
2022-09-01T02:48:42.544Z,10.67
2022-09-01T02:49:42.531Z,10.61
2022-09-01T02:50:42.527Z,10.63
2022-09-01T02:51:42.518Z,10.68
2022-09-01T02:52:42.545Z,10.64
2022-09-01T02:53:42.507Z,10.57
2022-09-01T02:54:42.496Z,10.48
2022-09-01T02:55:42.500Z,10.57
2022-09-01T02:56:42.488Z,10.64
2022-09-01T02:57:42.503Z,10.53
2022-09-01T02:58:42.466Z,10.46
2022-09-01T02:59:43.940Z,10.53
2022-09-01T03:00:43.629Z,10.41
2022-09-01T03:01:42.444Z,10.28
2022-09-01T03:02:42.459Z,10.26
2022-09-01T03:03:42.431Z,10.40
2022-09-01T03:04:42.460Z,10.31
2022-09-01T03:05:42.423Z,10.31
2022-09-01T03:06:42.415Z,10.31
2022-09-01T03:07:42.448Z,10.25
2022-09-01T03:08:42.390Z,10.35
2022-09-01T03:09:42.399Z,10.28
2022-09-01T03:10:42.380Z,10.26
2022-09-01T03:11:42.380Z,10.25
2022-09-01T03:12:42.397Z,10.34
2022-09-01T03:13:42.373Z,10.26
2022-09-01T03:14:42.351Z,10.30
2022-09-01T03:15:42.344Z,10.28
2022-09-01T03:16:42.417Z,10.31
2022-09-01T03:17:42.360Z,10.25
2022-09-01T03:18:42.315Z,10.23
2022-09-01T03:19:42.321Z,10.31
2022-09-01T03:20:42.305Z,10.23
2022-09-01T03:21:42.289Z,10.20
2022-09-01T03:22:43.322Z,10.10
2022-09-01T03:23:42.284Z,10.01
2022-09-01T03:24:42.271Z,10.12
2022-09-01T03:25:42.264Z,10.02
2022-09-01T03:26:42.258Z,10.02
2022-09-01T03:27:42.247Z,10.09
2022-09-01T03:28:42.264Z,10.12
2022-09-01T03:29:42.240Z,10.15
2022-09-01T03:30:42.224Z,10.12
2022-09-01T03:31:42.263Z,10.12
2022-09-01T03:32:42.219Z,10.07
2022-09-01T03:33:42.227Z,9.98
2022-09-01T03:34:42.199Z,10.04
2022-09-01T03:35:42.191Z,9.98
2022-09-01T03:36:42.182Z,9.91
2022-09-01T03:37:42.186Z,9.95
2022-09-01T03:38:42.193Z,9.91
2022-09-01T03:39:42.167Z,9.97
2022-09-01T03:40:42.186Z,9.94
2022-09-01T03:41:42.142Z,9.89
2022-09-01T03:42:42.140Z,9.94
2022-09-01T03:43:47.287Z,10.05
2022-09-01T03:44:43.137Z,9.97
2022-09-01T03:45:42.143Z,10.01
2022-09-01T03:46:42.108Z,9.91
2022-09-01T03:47:42.099Z,9.89
2022-09-01T03:48:42.116Z,9.98
2022-09-01T03:49:42.087Z,9.97
2022-09-01T03:50:42.078Z,9.84
2022-09-01T03:51:42.071Z,9.84
2022-09-01T03:52:42.060Z,9.86
2022-09-01T03:53:42.076Z,9.73
2022-09-01T03:54:42.047Z,9.77
2022-09-01T03:55:42.035Z,9.74
2022-09-01T03:56:42.101Z,9.73
2022-09-01T03:57:42.028Z,9.73
2022-09-01T03:58:42.037Z,9.77
2022-09-01T03:59:42.009Z,9.76
2022-09-01T04:00:42.019Z,9.77
2022-09-01T04:01:42.985Z,9.83
2022-09-01T04:02:43.019Z,9.80
2022-09-01T04:03:42.005Z,9.77
2022-09-01T04:04:41.974Z,9.87
2022-09-01T04:05:41.963Z,9.91
2022-09-01T04:06:41.981Z,9.83
2022-09-01T04:07:41.951Z,9.80
2022-09-01T04:08:41.975Z,9.84
2022-09-01T04:09:41.937Z,9.82
2022-09-01T04:10:41.923Z,9.86
2022-09-01T04:11:45.902Z,9.91
2022-09-01T04:12:42.914Z,9.73
2022-09-01T04:13:41.931Z,9.65
2022-09-01T04:14:41.897Z,9.68
2022-09-01T04:15:41.892Z,9.65
2022-09-01T04:16:41.970Z,9.73
2022-09-01T04:17:41.874Z,9.65
2022-09-01T04:18:41.898Z,9.68
2022-09-01T04:19:41.856Z,9.59
2022-09-01T04:20:41.849Z,9.68
2022-09-01T04:21:41.844Z,9.64
2022-09-01T04:22:41.838Z,9.64
2022-09-01T04:23:41.853Z,9.72
2022-09-01T04:24:44.947Z,9.72
2022-09-01T04:25:42.810Z,9.73
2022-09-01T04:26:41.803Z,9.69
2022-09-01T04:27:41.798Z,9.77
2022-09-01T04:28:41.818Z,9.83
2022-09-01T04:29:41.783Z,9.72
2022-09-01T04:30:41.776Z,9.74
2022-09-01T04:31:41.847Z,9.77
2022-09-01T04:32:41.760Z,9.83
2022-09-01T04:33:41.778Z,9.80
2022-09-01T04:34:41.792Z,9.66
2022-09-01T04:35:41.739Z,9.65
2022-09-01T04:36:41.729Z,9.66
2022-09-01T04:37:41.722Z,9.69
2022-09-01T04:38:41.745Z,9.76
2022-09-01T04:39:41.707Z,9.80
2022-09-01T04:40:41.738Z,9.72
2022-09-01T04:41:41.688Z,9.64
2022-09-01T04:42:41.694Z,9.73
2022-09-01T04:43:41.704Z,9.69
2022-09-01T04:44:41.667Z,9.65
2022-09-01T04:45:41.706Z,9.65
2022-09-01T04:46:41.656Z,9.74
2022-09-01T04:47:41.646Z,9.62
2022-09-01T04:48:41.688Z,9.73
2022-09-01T04:49:41.628Z,9.74
2022-09-01T04:50:41.618Z,9.84
2022-09-01T04:51:41.592Z,9.83
2022-09-01T04:52:42.608Z,9.84
2022-09-01T04:53:41.617Z,9.95
2022-09-01T04:54:41.591Z,9.97
2022-09-01T04:55:41.574Z,9.97
2022-09-01T04:56:41.573Z,10.02
2022-09-01T04:57:41.566Z,10.02
2022-09-01T04:58:41.576Z,10.09
2022-09-01T04:59:41.545Z,10.07
2022-09-01T05:00:41.606Z,10.04
2022-09-01T05:01:41.615Z,10.12
2022-09-01T05:02:41.531Z,10.10
2022-09-01T05:03:41.558Z,10.05
2022-09-01T05:04:41.516Z,10.02
2022-09-01T05:05:41.509Z,10.15
2022-09-01T05:06:41.498Z,10.10
2022-09-01T05:07:41.501Z,10.17
2022-09-01T05:08:41.518Z,10.12
2022-09-01T05:09:41.476Z,10.13
2022-09-01T05:10:41.473Z,10.19
2022-09-01T05:11:41.460Z,10.20
2022-09-01T05:12:41.463Z,10.28
2022-09-01T05:13:41.462Z,10.30
2022-09-01T05:14:41.442Z,10.48
2022-09-01T05:15:41.429Z,10.82
2022-09-01T05:16:41.500Z,11.19
2022-09-01T05:17:41.419Z,11.37
2022-09-01T05:18:41.435Z,11.70
2022-09-01T05:19:41.395Z,11.88
2022-09-01T05:20:41.393Z,12.02
2022-09-01T05:21:41.389Z,12.17
2022-09-01T05:22:41.375Z,11.95
2022-09-01T05:23:41.401Z,11.77
2022-09-01T05:24:42.229Z,11.37
2022-09-01T05:25:42.355Z,11.04
2022-09-01T05:26:41.352Z,11.05
2022-09-01T05:27:41.344Z,10.92
2022-09-01T05:28:41.367Z,10.87
2022-09-01T05:29:41.334Z,10.82
2022-09-01T05:30:42.333Z,10.84
2022-09-01T05:31:41.355Z,10.92
2022-09-01T05:32:41.305Z,10.89
2022-09-01T05:33:41.332Z,10.81
2022-09-01T05:34:41.295Z,10.82
2022-09-01T05:35:41.284Z,10.87
2022-09-01T05:36:41.292Z,10.82
2022-09-01T05:37:41.264Z,11.02
2022-09-01T05:38:41.260Z,11.23
2022-09-01T05:39:41.271Z,11.54
2022-09-01T05:40:41.377Z,11.68
2022-09-01T05:41:41.250Z,11.70
2022-09-01T05:42:41.233Z,11.70
2022-09-01T05:43:41.248Z,11.65
2022-09-01T05:44:41.210Z,11.62
2022-09-01T05:46:03.344Z,11.62
2022-09-01T05:46:43.274Z,11.57
2022-09-01T05:47:41.188Z,11.63
2022-09-01T05:48:41.179Z,11.69
2022-09-01T05:49:41.201Z,11.90
2022-09-01T05:50:41.167Z,11.97
2022-09-01T05:51:45.919Z,12.15
2022-09-01T05:52:43.169Z,12.13
2022-09-01T05:53:41.148Z,12.20
2022-09-01T05:54:41.167Z,12.20
2022-09-01T05:55:41.126Z,12.31
2022-09-01T05:56:43.740Z,12.28
2022-09-01T05:57:42.115Z,12.39
2022-09-01T05:59:43.126Z,12.46
2022-09-01T06:00:41.096Z,12.53
2022-09-01T06:01:41.289Z,12.70
2022-09-01T06:02:41.243Z,12.73
2022-09-01T06:03:41.077Z,12.78
2022-09-01T06:04:41.087Z,12.80
2022-09-01T06:05:41.052Z,12.82
2022-09-01T06:07:01.796Z,12.83
2022-09-01T06:07:43.079Z,12.90
2022-09-01T06:08:46.730Z,13.11
2022-09-01T06:09:43.045Z,13.11
2022-09-01T06:10:41.349Z,13.23
2022-09-01T06:11:41.005Z,13.20
2022-09-01T06:12:40.997Z,13.09
2022-09-01T06:13:40.992Z,13.22
2022-09-01T06:14:41.012Z,13.41
2022-09-01T06:15:40.973Z,13.41
2022-09-01T06:16:41.031Z,13.47
2022-09-01T06:17:40.960Z,13.28
2022-09-01T06:18:40.949Z,13.08
2022-09-01T06:19:40.995Z,12.85
2022-09-01T06:20:40.937Z,13.04
2022-09-01T06:21:40.925Z,13.20
2022-09-01T06:22:40.925Z,13.27
2022-09-01T06:23:40.913Z,13.30
2022-09-01T06:24:43.548Z,13.46
2022-09-01T06:25:40.898Z,13.47
2022-09-01T06:26:40.892Z,13.53
2022-09-01T06:27:40.880Z,13.57
2022-09-01T06:28:40.874Z,13.47
2022-09-01T06:29:40.912Z,13.28
2022-09-01T06:30:40.891Z,12.95
2022-09-01T06:31:40.905Z,13.16
2022-09-01T06:32:40.845Z,13.31
2022-09-01T06:33:40.841Z,13.54
2022-09-01T06:34:40.856Z,13.57
2022-09-01T06:35:40.815Z,13.68
2022-09-01T06:36:40.822Z,13.72
2022-09-01T06:37:40.807Z,13.87
2022-09-01T06:38:40.807Z,13.97
2022-09-01T06:39:40.808Z,14.26
2022-09-01T06:40:40.834Z,14.50
2022-09-01T06:41:40.770Z,14.73
2022-09-01T06:42:40.774Z,14.86
2022-09-01T06:43:40.758Z,15.15
2022-09-01T06:44:41.081Z,15.35
2022-09-01T06:45:41.750Z,15.36
2022-09-01T06:46:40.810Z,15.35
2022-09-01T06:47:40.727Z,15.58
2022-09-01T06:48:40.716Z,15.57
2022-09-01T06:49:40.740Z,15.55
2022-09-01T06:51:42.694Z,14.96
2022-09-01T06:53:42.681Z,14.89
2022-09-01T06:54:40.699Z,14.96
2022-09-01T06:55:40.662Z,15.15
2022-09-01T06:56:44.825Z,15.27
2022-09-01T06:58:42.644Z,15.18
2022-09-01T06:59:40.668Z,15.00
2022-09-01T07:00:40.626Z,15.17
2022-09-01T07:01:40.755Z,15.25
2022-09-01T07:02:40.647Z,15.43
2022-09-01T07:03:40.590Z,15.43
2022-09-01T07:04:41.650Z,15.43
2022-09-01T07:11:19.603Z,15.75
2022-09-01T07:13:05.314Z,15.90
2022-09-01T07:14:15.325Z,16.10
2022-09-01T07:17:42.554Z,15.77
2022-09-01T07:18:40.491Z,15.77
2022-09-01T07:19:55.868Z,16.04
2022-09-01T07:22:06.636Z,16.21
2022-09-01T07:24:10.404Z,16.17
2022-09-01T07:24:42.456Z,16.10
2022-09-01T07:26:47.180Z,15.95
2022-09-01T07:27:42.431Z,15.98
2022-09-01T07:28:40.546Z,16.20
2022-09-01T07:29:41.560Z,16.29
2022-09-01T07:30:40.763Z,16.35
2022-09-01T07:32:44.080Z,16.32
2022-09-01T07:33:44.135Z,16.21
2022-09-01T07:34:41.478Z,16.24
2022-09-01T07:36:24.971Z,16.31
2022-09-01T07:37:17.311Z,16.43
2022-09-01T07:39:51.229Z,16.64
2022-09-01T07:42:31.940Z,15.75
2022-09-01T07:43:42.305Z,17.12
2022-09-01T07:44:40.323Z,17.02
2022-09-01T07:45:47.892Z,17.02
2022-09-01T07:46:42.392Z,17.33
2022-09-01T07:47:55.638Z,17.38
2022-09-01T07:50:24.575Z,17.39
2022-09-01T07:51:35.009Z,17.05
2022-09-01T07:51:42.279Z,17.12
2022-09-01T07:52:40.237Z,16.84
2022-09-01T07:53:40.227Z,17.08
2022-09-01T07:54:40.227Z,17.14
2022-09-01T07:55:40.239Z,16.83
2022-09-01T07:56:40.582Z,16.97
2022-09-01T07:57:41.204Z,17.24
2022-09-01T07:58:40.212Z,17.19
2022-09-01T07:59:40.184Z,17.16
2022-09-01T08:00:40.212Z,16.93
2022-09-01T08:01:40.217Z,17.04
2022-09-01T08:02:40.182Z,17.27
2022-09-01T08:03:40.155Z,17.23
2022-09-01T08:04:40.147Z,17.23
2022-09-01T08:05:40.217Z,17.19
2022-09-01T08:06:40.956Z,17.24
2022-09-01T08:07:52.157Z,17.76
2022-09-01T08:08:42.118Z,17.82
2022-09-01T08:09:44.242Z,18.00
2022-09-01T08:10:41.133Z,17.82
2022-09-01T08:12:01.187Z,17.97
2022-09-01T08:12:42.136Z,17.94
2022-09-01T08:13:42.028Z,17.71
2022-09-01T08:14:41.068Z,17.68
2022-09-01T08:15:41.772Z,17.74
2022-09-01T08:16:52.050Z,17.71
2022-09-01T08:17:56.524Z,17.68
2022-09-01T08:18:49.844Z,17.46
2022-09-01T08:19:42.938Z,17.31
2022-09-01T08:20:40.025Z,17.11
2022-09-01T08:21:40.053Z,17.23
2022-09-01T08:22:40.030Z,17.23
2022-09-01T08:23:40.005Z,17.08
2022-09-01T08:24:39.985Z,17.01
2022-09-01T08:25:39.978Z,17.14
2022-09-01T08:26:39.999Z,17.29
2022-09-01T08:27:39.970Z,17.16
2022-09-01T08:28:45.900Z,17.11
2022-09-01T08:29:40.954Z,16.91
2022-09-01T08:30:39.962Z,17.04
2022-09-01T08:31:40.016Z,16.99
2022-09-01T08:32:39.943Z,17.23
2022-09-01T08:33:39.921Z,17.22
2022-09-01T08:34:39.911Z,17.23
2022-09-01T08:35:39.904Z,17.22
2022-09-01T08:36:39.929Z,17.14
2022-09-01T08:37:39.891Z,17.30
2022-09-01T08:38:39.887Z,17.26
2022-09-01T08:39:39.878Z,17.20
2022-09-01T08:40:39.907Z,17.12
2022-09-01T08:41:39.893Z,17.16
2022-09-01T08:42:40.846Z,17.27
2022-09-01T08:43:39.843Z,17.48
2022-09-01T08:44:39.838Z,17.51
2022-09-01T08:45:39.828Z,17.60
2022-09-01T08:46:39.874Z,17.54
2022-09-01T08:48:04.628Z,17.49
2022-09-01T08:49:43.686Z,17.60
2022-09-01T08:50:40.887Z,17.80
2022-09-01T08:51:40.544Z,17.89
2022-09-01T08:52:40.184Z,18.04
2022-09-01T08:53:40.767Z,18.25
2022-09-01T08:54:39.754Z,18.44
2022-09-01T08:55:40.236Z,18.70
2022-09-01T08:56:39.739Z,18.65
2022-09-01T08:57:39.753Z,18.77
2022-09-01T08:58:40.287Z,18.95
2022-09-01T08:59:39.731Z,18.81
2022-09-01T09:00:39.756Z,19.04
2022-09-01T09:01:39.740Z,18.89
2022-09-01T09:02:39.699Z,18.90
2022-09-01T09:03:41.459Z,18.92
2022-09-01T09:04:40.682Z,18.80
2022-09-01T09:05:39.710Z,18.86
2022-09-01T09:06:39.663Z,18.63
2022-09-01T09:07:39.671Z,18.71
2022-09-01T09:08:39.649Z,18.78
2022-09-01T09:09:39.641Z,18.98
2022-09-01T09:10:39.670Z,19.33
2022-09-01T09:11:39.627Z,19.19
2022-09-01T09:12:48.933Z,19.19
2022-09-01T09:13:41.616Z,19.27
2022-09-01T09:14:39.597Z,19.26
2022-09-01T09:15:40.677Z,19.24
2022-09-01T09:16:39.630Z,19.09
2022-09-01T09:17:39.582Z,19.29
2022-09-01T09:18:40.581Z,19.26
2022-09-01T09:19:39.591Z,19.12
2022-09-01T09:20:40.733Z,19.07
2022-09-01T09:21:39.571Z,19.24
2022-09-01T09:22:39.556Z,19.41
2022-09-01T09:23:39.535Z,19.44
2022-09-01T09:24:40.392Z,19.34
2022-09-01T09:25:39.547Z,19.39
2022-09-01T09:26:42.883Z,19.26
2022-09-01T09:27:40.515Z,19.33
2022-09-01T09:28:39.507Z,19.47
2022-09-01T09:29:39.495Z,19.34
2022-09-01T09:30:39.551Z,19.11
2022-09-01T09:31:39.559Z,19.15
2022-09-01T09:33:06.531Z,19.41
2022-09-01T09:33:52.576Z,19.40
2022-09-01T09:34:41.459Z,19.34
2022-09-01T09:35:39.862Z,19.77
2022-09-01T09:36:39.453Z,20.04
2022-09-01T09:37:39.443Z,20.14
2022-09-01T09:38:39.430Z,20.03
2022-09-01T09:39:39.417Z,20.00
2022-09-01T09:41:06.639Z,20.28
2022-09-01T09:41:41.448Z,20.39
2022-09-01T09:42:39.398Z,20.37
2022-09-01T09:43:39.387Z,20.65
2022-09-01T09:44:41.299Z,20.78
2022-09-01T09:45:42.178Z,20.65
2022-09-01T09:46:40.413Z,20.63
2022-09-01T09:47:45.575Z,20.60
2022-09-01T09:48:41.356Z,20.48
2022-09-01T09:49:44.274Z,20.40
2022-09-01T09:50:41.379Z,20.29
2022-09-01T09:51:39.342Z,20.44
2022-09-01T09:52:39.326Z,20.65
2022-09-01T09:53:39.320Z,20.90
2022-09-01T09:54:39.313Z,20.84
2022-09-01T09:55:39.351Z,21.14
2022-09-01T09:56:39.298Z,20.55
2022-09-01T09:57:39.312Z,20.62
2022-09-01T09:58:39.285Z,20.59
2022-09-01T09:59:57.837Z,20.62
2022-09-01T10:00:41.296Z,20.92
2022-09-01T10:01:39.336Z,20.85
2022-09-01T10:02:39.787Z,21.00
2022-09-01T10:03:39.307Z,20.88
2022-09-01T10:04:39.260Z,21.06
2022-09-01T10:05:39.238Z,21.11
2022-09-01T10:06:39.251Z,21.18
2022-09-01T10:07:39.227Z,21.18
2022-09-01T10:08:39.224Z,21.24
2022-09-01T10:09:39.203Z,20.88
2022-09-01T10:10:39.211Z,20.93
2022-09-01T10:11:41.636Z,21.00
2022-09-01T10:12:39.184Z,20.82
2022-09-01T10:13:39.182Z,20.78
2022-09-01T10:14:54.165Z,20.93
2022-09-01T10:15:41.193Z,21.22
2022-09-01T10:16:39.290Z,21.09
2022-09-01T10:17:39.165Z,20.88
2022-09-01T10:18:39.192Z,21.22
2022-09-01T10:19:39.135Z,21.29
2022-09-01T10:20:39.164Z,21.25
2022-09-01T10:21:39.125Z,21.39
2022-09-01T10:22:39.106Z,21.21
2022-09-01T10:23:41.400Z,21.17
2022-09-01T10:24:45.385Z,21.29
2022-09-01T10:25:40.121Z,21.25
2022-09-01T10:26:39.077Z,21.32
2022-09-01T10:27:39.081Z,21.25
2022-09-01T10:28:39.070Z,20.93
2022-09-01T10:29:47.401Z,21.14
2022-09-01T10:30:41.174Z,21.32
2022-09-01T10:31:39.037Z,21.39
2022-09-01T10:32:49.220Z,21.39
2022-09-01T10:33:41.076Z,21.32
2022-09-01T10:34:42.055Z,21.51
2022-09-01T10:35:39.955Z,21.50
2022-09-01T10:36:40.004Z,21.79
2022-09-01T10:37:38.995Z,21.79
2022-09-01T10:38:39.296Z,21.80
2022-09-01T10:39:43.083Z,21.46
2022-09-01T10:40:43.845Z,21.55
2022-09-01T10:41:39.121Z,21.85
2022-09-01T10:42:40.549Z,21.75
2022-09-01T10:43:39.957Z,21.85
2022-09-01T10:44:38.974Z,22.13
2022-09-01T10:45:38.985Z,21.85
2022-09-01T10:46:41.049Z,21.99
2022-09-01T10:47:38.963Z,22.26
2022-09-01T10:48:48.372Z,22.62
2022-09-01T10:49:46.215Z,22.38
2022-09-01T10:50:39.904Z,22.26
2022-09-01T10:51:45.085Z,22.26
2022-09-01T10:52:39.879Z,21.92
2022-09-01T10:53:38.878Z,21.72
2022-09-01T10:54:40.354Z,21.61
2022-09-01T10:55:40.863Z,21.50
2022-09-01T10:56:43.669Z,21.62
2022-09-01T10:57:43.703Z,22.04
2022-09-01T10:59:44.419Z,21.93
2022-09-01T11:00:40.866Z,21.98
2022-09-01T11:01:48.841Z,21.61
2022-09-01T11:02:42.432Z,21.85
2022-09-01T11:03:47.823Z,21.96
2022-09-01T11:04:40.912Z,22.17
2022-09-01T11:05:38.777Z,22.28
2022-09-01T11:06:38.800Z,22.47
2022-09-01T11:07:59.855Z,22.17
2022-09-01T11:08:40.774Z,22.50
2022-09-01T11:09:38.761Z,22.70
2022-09-01T11:10:38.746Z,22.80
2022-09-01T11:11:38.763Z,22.80
2022-09-01T11:12:38.734Z,23.05
2022-09-01T11:13:38.727Z,22.73
2022-09-01T11:14:38.709Z,22.39
2022-09-01T11:15:38.720Z,22.17
2022-09-01T11:16:46.744Z,22.32
2022-09-01T11:17:40.745Z,22.20
2022-09-01T11:18:38.677Z,22.08
2022-09-01T11:19:38.720Z,22.15
2022-09-01T11:20:38.663Z,22.13
2022-09-01T11:21:38.696Z,22.53
2022-09-01T11:22:38.698Z,22.23
2022-09-01T11:23:39.378Z,21.95
2022-09-01T11:24:38.645Z,22.08
2022-09-01T11:25:39.252Z,22.26
2022-09-01T11:26:39.653Z,22.39
2022-09-01T11:27:38.625Z,22.38
2022-09-01T11:28:38.615Z,22.30
2022-09-01T11:29:38.599Z,22.28
2022-09-01T11:30:38.592Z,22.39
2022-09-01T11:31:38.790Z,22.15
2022-09-01T11:32:38.587Z,21.99
2022-09-01T11:33:38.573Z,22.17
2022-09-01T11:34:38.566Z,22.28
2022-09-01T11:35:38.564Z,22.44
2022-09-01T11:36:38.558Z,22.39
2022-09-01T11:37:38.584Z,22.51
2022-09-01T11:38:38.546Z,22.80
2022-09-01T11:39:38.528Z,22.55
2022-09-01T11:40:38.585Z,22.57
2022-09-01T11:41:38.515Z,22.73
2022-09-01T11:42:38.528Z,23.05
2022-09-01T11:43:38.502Z,23.13
2022-09-01T11:44:38.502Z,22.91
2022-09-01T11:45:38.506Z,22.94
2022-09-01T11:46:38.473Z,22.78
2022-09-01T11:47:38.486Z,22.84
2022-09-01T11:48:38.458Z,22.96
2022-09-01T11:49:38.454Z,23.09
2022-09-01T11:50:38.448Z,22.72
2022-09-01T11:51:38.463Z,22.63
2022-09-01T11:52:38.452Z,22.73
2022-09-01T11:53:38.424Z,22.65
2022-09-01T11:54:38.413Z,22.51
2022-09-01T11:55:38.398Z,22.50
2022-09-01T11:56:38.401Z,22.81
2022-09-01T11:57:38.414Z,22.85
2022-09-01T11:58:38.386Z,23.15
2022-09-01T11:59:38.373Z,22.88
2022-09-01T12:00:38.392Z,23.02
2022-09-01T12:01:38.371Z,22.99
2022-09-01T12:02:38.492Z,22.99
2022-09-01T12:03:38.395Z,23.02
2022-09-01T12:04:38.344Z,22.48
2022-09-01T12:05:38.328Z,22.60
2022-09-01T12:06:38.317Z,22.60
2022-09-01T12:07:38.422Z,22.62
2022-09-01T12:08:38.314Z,22.87
2022-09-01T12:09:38.313Z,23.28
2022-09-01T12:10:38.295Z,23.12
2022-09-01T12:11:38.291Z,23.00
2022-09-01T12:12:38.323Z,23.27
2022-09-01T12:13:38.279Z,23.50
2022-09-01T12:15:01.955Z,23.65
2022-09-01T12:15:54.955Z,23.68
2022-09-01T12:16:39.306Z,23.36
2022-09-01T12:17:38.270Z,23.09
2022-09-01T12:18:38.245Z,22.76
2022-09-01T12:19:38.230Z,22.99
2022-09-01T12:20:38.291Z,23.25
2022-09-01T12:21:38.218Z,23.44
2022-09-01T12:22:38.228Z,23.61
2022-09-01T12:23:38.194Z,23.65
2022-09-01T12:24:38.195Z,23.65
2022-09-01T12:25:38.190Z,23.59
2022-09-01T12:26:38.176Z,23.12
2022-09-01T12:27:38.201Z,22.96
2022-09-01T12:28:38.163Z,23.06
2022-09-01T12:29:38.170Z,23.17
2022-09-01T12:30:38.150Z,22.99
2022-09-01T12:31:38.157Z,22.88
2022-09-01T12:32:38.161Z,22.85
2022-09-01T12:33:38.510Z,23.02
2022-09-01T12:34:38.122Z,23.24
2022-09-01T12:35:38.113Z,23.08
2022-09-01T12:36:38.141Z,22.84
2022-09-01T12:37:38.117Z,22.68
2022-09-01T12:38:38.102Z,22.83
2022-09-01T12:39:38.081Z,22.78
2022-09-01T12:40:38.100Z,22.55
2022-09-01T12:41:39.012Z,22.59
2022-09-01T12:42:41.492Z,22.70
2022-09-01T12:43:39.044Z,22.80
2022-09-01T12:44:38.052Z,22.87
2022-09-01T12:45:38.054Z,22.96
2022-09-01T12:46:38.025Z,22.55
2022-09-01T12:47:38.068Z,22.30
2022-09-01T12:48:38.014Z,22.38
2022-09-01T12:49:38.022Z,22.41
2022-09-01T12:50:38.999Z,22.51
2022-09-01T12:51:37.991Z,22.68
2022-09-01T12:52:40.178Z,22.80
2022-09-01T12:53:37.971Z,22.59
2022-09-01T12:54:37.969Z,22.81
2022-09-01T12:55:53.300Z,22.84
2022-09-01T12:56:39.952Z,23.06
2022-09-01T12:57:37.979Z,23.28
2022-09-01T12:58:37.935Z,23.34
2022-09-01T12:59:37.933Z,23.63
2022-09-01T13:00:37.923Z,23.78
2022-09-01T13:01:38.348Z,23.86
2022-09-01T13:02:38.012Z,23.68
2022-09-01T13:03:37.906Z,23.31
2022-09-01T13:04:37.891Z,23.10
2022-09-01T13:05:42.136Z,23.06
2022-09-01T13:06:38.879Z,23.09
2022-09-01T13:07:37.890Z,23.06
2022-09-01T13:08:38.859Z,22.99
2022-09-01T13:09:37.854Z,22.91
2022-09-01T13:10:37.850Z,22.84
2022-09-01T13:12:39.866Z,23.10
2022-09-01T13:13:37.836Z,23.20
2022-09-01T13:14:37.816Z,23.47
2022-09-01T13:15:37.815Z,23.86
2022-09-01T13:16:37.863Z,23.93
2022-09-01T13:17:38.389Z,24.20
2022-09-01T13:19:39.783Z,24.33
2022-09-01T13:20:37.765Z,24.13
2022-09-01T13:22:37.781Z,23.05